sensor_id;sensor_type;location;lat;lon;timestamp;temperature;humidity
45319;DHT22;31057;48.498;32.260;2022-12-18T00:00:59;3.10;99.90
45319;DHT22;31057;48.498;32.260;2022-12-18T00:03:01;3.10;99.90
45319;DHT22;31057;48.498;32.260;2022-12-18T00:05:03;3.10;99.90
45319;DHT22;31057;48.498;32.260;2022-12-18T00:07:05;3.10;99.90
45319;DHT22;31057;48.498;32.260;2022-12-18T00:09:07;3.10;99.90
45319;DHT22;31057;48.498;32.260;2022-12-18T00:11:19;3.00;99.90
45319;DHT22;31057;48.498;32.260;2022-12-18T00:13:21;3.00;99.90
45319;DHT22;31057;48.498;32.260;2022-12-18T00:15:23;3.00;99.90
45319;DHT22;31057;48.498;32.260;2022-12-18T00:17:25;3.00;99.90
45319;DHT22;31057;48.498;32.260;2022-12-18T00:19:27;3.00;99.90
45319;DHT22;31057;48.498;32.260;2022-12-18T00:21:29;2.90;99.90
45319;DHT22;31057;48.498;32.260;2022-12-18T00:23:34;2.90;99.90
45319;DHT22;31057;48.498;32.260;2022-12-18T00:25:37;2.80;99.90
45319;DHT22;31057;48.498;32.260;2022-12-18T00:27:38;2.80;99.90
45319;DHT22;31057;48.498;32.260;2022-12-18T00:29:40;2.80;99.90
45319;DHT22;31057;48.498;32.260;2022-12-18T00:31:42;2.80;99.90
45319;DHT22;31057;48.498;32.260;2022-12-18T00:33:45;2.80;99.90
45319;DHT22;31057;48.498;32.260;2022-12-18T00:35:47;2.80;99.90
45319;DHT22;31057;48.498;32.260;2022-12-18T00:37:49;2.80;99.90
45319;DHT22;31057;48.498;32.260;2022-12-18T00:39:51;2.80;99.90
45319;DHT22;31057;48.498;32.260;2022-12-18T00:41:52;2.80;99.90
45319;DHT22;31057;48.498;32.260;2022-12-18T00:44:16;2.80;99.90
45319;DHT22;31057;48.498;32.260;2022-12-18T00:46:18;2.70;99.90
45319;DHT22;31057;48.498;32.260;2022-12-18T00:48:20;2.70;99.90
45319;DHT22;31057;48.498;32.260;2022-12-18T00:50:24;2.70;99.90
45319;DHT22;31057;48.498;32.260;2022-12-18T00:52:26;2.60;99.90
45319;DHT22;31057;48.498;32.260;2022-12-18T00:54:28;2.60;99.90
45319;DHT22;31057;48.498;32.260;2022-12-18T00:56:30;2.70;99.90
45319;DHT22;31057;48.498;32.260;2022-12-18T00:58:31;2.60;99.90
45319;DHT22;31057;48.498;32.260;2022-12-18T01:00:34;2.60;99.90
45319;DHT22;31057;48.498;32.260;2022-12-18T01:02:36;2.50;99.90
45319;DHT22;31057;48.498;32.260;2022-12-18T01:04:38;2.50;99.90
45319;DHT22;31057;48.498;32.260;2022-12-18T01:06:40;2.60;99.90
45319;DHT22;31057;48.498;32.260;2022-12-18T01:08:43;2.50;99.90
45319;DHT22;31057;48.498;32.260;2022-12-18T01:10:45;2.50;99.90
45319;DHT22;31057;48.498;32.260;2022-12-18T01:12:47;2.50;99.90
45319;DHT22;31057;48.498;32.260;2022-12-18T01:14:49;2.50;99.90
45319;DHT22;31057;48.498;32.260;2022-12-18T01:16:51;2.50;99.90
45319;DHT22;31057;48.498;32.260;2022-12-18T01:18:54;2.50;99.90
45319;DHT22;31057;48.498;32.260;2022-12-18T01:20:56;2.40;99.90
45319;DHT22;31057;48.498;32.260;2022-12-18T01:22:58;2.40;99.90
45319;DHT22;31057;48.498;32.260;2022-12-18T01:25:00;2.40;99.90
45319;DHT22;31057;48.498;32.260;2022-12-18T01:27:02;2.50;99.90
45319;DHT22;31057;48.498;32.260;2022-12-18T01:29:04;2.30;99.90
45319;DHT22;31057;48.498;32.260;2022-12-18T01:31:27;2.30;99.90
45319;DHT22;31057;48.498;32.260;2022-12-18T01:33:29;2.30;99.90
45319;DHT22;31057;48.498;32.260;2022-12-18T01:35:31;2.30;99.90
45319;DHT22;31057;48.498;32.260;2022-12-18T01:37:33;2.20;99.90
45319;DHT22;31057;48.498;32.260;2022-12-18T01:39:35;2.10;99.90
45319;DHT22;31057;48.498;32.260;2022-12-18T01:41:37;2.10;99.90
45319;DHT22;31057;48.498;32.260;2022-12-18T01:43:58;2.20;99.90
45319;DHT22;31057;48.498;32.260;2022-12-18T01:46:00;2.10;99.90
45319;DHT22;31057;48.498;32.260;2022-12-18T01:48:05;2.10;99.90
45319;DHT22;31057;48.498;32.260;2022-12-18T01:50:15;2.10;99.90
45319;DHT22;31057;48.498;32.260;2022-12-18T01:52:18;2.10;99.90
45319;DHT22;31057;48.498;32.260;2022-12-18T01:54:20;2.10;99.90
45319;DHT22;31057;48.498;32.260;2022-12-18T01:56:22;2.10;99.90
45319;DHT22;31057;48.498;32.260;2022-12-18T01:58:27;2.10;99.90
45319;DHT22;31057;48.498;32.260;2022-12-18T02:00:32;2.10;99.90
45319;DHT22;31057;48.498;32.260;2022-12-18T02:02:34;2.10;99.90
45319;DHT22;31057;48.498;32.260;2022-12-18T02:04:36;2.10;99.90
45319;DHT22;31057;48.498;32.260;2022-12-18T02:06:40;2.10;99.90
45319;DHT22;31057;48.498;32.260;2022-12-18T02:15:32;2.00;99.90
45319;DHT22;31057;48.498;32.260;2022-12-18T02:17:41;2.00;99.90
45319;DHT22;31057;48.498;32.260;2022-12-18T02:21:55;1.80;99.90
45319;DHT22;31057;48.498;32.260;2022-12-18T02:24:33;1.80;99.90
45319;DHT22;31057;48.498;32.260;2022-12-18T02:26:38;1.80;99.90
45319;DHT22;31057;48.498;32.260;2022-12-18T02:29:03;1.80;99.90
45319;DHT22;31057;48.498;32.260;2022-12-18T02:31:11;1.70;99.90
45319;DHT22;31057;48.498;32.260;2022-12-18T02:33:15;1.70;99.90
45319;DHT22;31057;48.498;32.260;2022-12-18T02:35:27;1.60;99.90
45319;DHT22;31057;48.498;32.260;2022-12-18T02:37:31;1.50;99.90
45319;DHT22;31057;48.498;32.260;2022-12-18T02:39:36;1.50;99.90
45319;DHT22;31057;48.498;32.260;2022-12-18T02:41:39;1.40;99.90
45319;DHT22;31057;48.498;32.260;2022-12-18T02:43:49;1.40;99.90
45319;DHT22;31057;48.498;32.260;2022-12-18T02:45:57;1.40;99.90
45319;DHT22;31057;48.498;32.260;2022-12-18T02:47:59;1.40;99.90
45319;DHT22;31057;48.498;32.260;2022-12-18T02:50:18;1.50;99.90
45319;DHT22;31057;48.498;32.260;2022-12-18T02:52:56;1.50;99.90
45319;DHT22;31057;48.498;32.260;2022-12-18T03:02:24;1.40;99.90
45319;DHT22;31057;48.498;32.260;2022-12-18T03:07:05;1.40;99.90
45319;DHT22;31057;48.498;32.260;2022-12-18T03:09:34;1.30;99.90
45319;DHT22;31057;48.498;32.260;2022-12-18T03:11:34;1.40;99.90
45319;DHT22;31057;48.498;32.260;2022-12-18T03:13:57;1.40;99.90
45319;DHT22;31057;48.498;32.260;2022-12-18T03:16:00;1.40;99.90
45319;DHT22;31057;48.498;32.260;2022-12-18T03:18:07;1.30;99.90
45319;DHT22;31057;48.498;32.260;2022-12-18T03:20:14;1.40;99.90
45319;DHT22;31057;48.498;32.260;2022-12-18T03:22:16;1.40;99.90
45319;DHT22;31057;48.498;32.260;2022-12-18T03:24:20;1.30;99.90
45319;DHT22;31057;48.498;32.260;2022-12-18T03:26:25;1.30;99.90
45319;DHT22;31057;48.498;32.260;2022-12-18T03:28:30;1.30;99.90
45319;DHT22;31057;48.498;32.260;2022-12-18T03:30:34;1.30;99.90
45319;DHT22;31057;48.498;32.260;2022-12-18T03:35:05;1.20;99.90
45319;DHT22;31057;48.498;32.260;2022-12-18T03:37:08;1.20;99.90
45319;DHT22;31057;48.498;32.260;2022-12-18T03:39:10;1.10;99.90
45319;DHT22;31057;48.498;32.260;2022-12-18T03:44:03;1.10;99.90
45319;DHT22;31057;48.498;32.260;2022-12-18T03:46:33;1.10;99.90
45319;DHT22;31057;48.498;32.260;2022-12-18T03:48:49;1.00;99.90
45319;DHT22;31057;48.498;32.260;2022-12-18T03:51:06;1.00;99.90
45319;DHT22;31057;48.498;32.260;2022-12-18T03:53:39;1.00;99.90
45319;DHT22;31057;48.498;32.260;2022-12-18T03:55:45;1.00;99.90
45319;DHT22;31057;48.498;32.260;2022-12-18T03:57:49;1.00;99.90
45319;DHT22;31057;48.498;32.260;2022-12-18T04:00:06;1.00;99.90
45319;DHT22;31057;48.498;32.260;2022-12-18T04:02:08;1.00;99.90
45319;DHT22;31057;48.498;32.260;2022-12-18T04:04:12;1.10;99.90
45319;DHT22;31057;48.498;32.260;2022-12-18T04:06:16;0.90;99.90
45319;DHT22;31057;48.498;32.260;2022-12-18T04:08:19;0.80;99.90
45319;DHT22;31057;48.498;32.260;2022-12-18T04:10:22;0.80;99.90
45319;DHT22;31057;48.498;32.260;2022-12-18T04:12:25;0.90;99.90
45319;DHT22;31057;48.498;32.260;2022-12-18T04:14:27;0.80;99.90
45319;DHT22;31057;48.498;32.260;2022-12-18T04:16:29;0.80;99.90
45319;DHT22;31057;48.498;32.260;2022-12-18T04:18:31;0.80;99.90
45319;DHT22;31057;48.498;32.260;2022-12-18T04:20:33;0.90;99.90
45319;DHT22;31057;48.498;32.260;2022-12-18T04:22:35;0.90;99.90
45319;DHT22;31057;48.498;32.260;2022-12-18T04:24:37;0.90;99.90
45319;DHT22;31057;48.498;32.260;2022-12-18T04:26:39;0.80;99.90
45319;DHT22;31057;48.498;32.260;2022-12-18T04:28:41;0.80;99.90
45319;DHT22;31057;48.498;32.260;2022-12-18T04:30:43;0.80;99.90
45319;DHT22;31057;48.498;32.260;2022-12-18T04:32:45;0.80;99.90
45319;DHT22;31057;48.498;32.260;2022-12-18T04:34:52;0.90;99.90
45319;DHT22;31057;48.498;32.260;2022-12-18T04:36:54;0.90;99.90
45319;DHT22;31057;48.498;32.260;2022-12-18T04:38:56;0.80;99.90
45319;DHT22;31057;48.498;32.260;2022-12-18T04:40:58;0.80;99.90
45319;DHT22;31057;48.498;32.260;2022-12-18T04:43:00;0.70;99.90
45319;DHT22;31057;48.498;32.260;2022-12-18T04:45:02;0.70;99.90
45319;DHT22;31057;48.498;32.260;2022-12-18T04:47:04;0.70;99.90
45319;DHT22;31057;48.498;32.260;2022-12-18T04:49:06;0.70;99.90
45319;DHT22;31057;48.498;32.260;2022-12-18T04:51:08;0.70;99.90
45319;DHT22;31057;48.498;32.260;2022-12-18T04:53:10;0.70;99.90
45319;DHT22;31057;48.498;32.260;2022-12-18T04:55:12;0.70;99.90
45319;DHT22;31057;48.498;32.260;2022-12-18T04:57:14;0.70;99.90
45319;DHT22;31057;48.498;32.260;2022-12-18T04:59:15;0.70;99.90
45319;DHT22;31057;48.498;32.260;2022-12-18T05:01:18;0.70;99.90
45319;DHT22;31057;48.498;32.260;2022-12-18T05:03:20;0.80;99.90
45319;DHT22;31057;48.498;32.260;2022-12-18T05:05:22;0.70;99.90
45319;DHT22;31057;48.498;32.260;2022-12-18T05:07:24;0.70;99.90
45319;DHT22;31057;48.498;32.260;2022-12-18T05:09:26;0.70;99.90
45319;DHT22;31057;48.498;32.260;2022-12-18T05:11:27;0.80;99.90
45319;DHT22;31057;48.498;32.260;2022-12-18T05:13:30;0.70;99.90
45319;DHT22;31057;48.498;32.260;2022-12-18T05:15:33;0.70;99.90
45319;DHT22;31057;48.498;32.260;2022-12-18T05:17:35;0.70;99.90
45319;DHT22;31057;48.498;32.260;2022-12-18T05:19:38;0.70;99.90
45319;DHT22;31057;48.498;32.260;2022-12-18T05:21:40;0.70;99.90
45319;DHT22;31057;48.498;32.260;2022-12-18T05:23:43;0.70;99.90
45319;DHT22;31057;48.498;32.260;2022-12-18T05:25:56;0.70;99.90
45319;DHT22;31057;48.498;32.260;2022-12-18T05:27:58;0.70;99.90
45319;DHT22;31057;48.498;32.260;2022-12-18T05:30:00;0.70;99.90
45319;DHT22;31057;48.498;32.260;2022-12-18T05:32:02;0.70;99.90
45319;DHT22;31057;48.498;32.260;2022-12-18T05:34:04;0.60;99.90
45319;DHT22;31057;48.498;32.260;2022-12-18T05:36:07;0.70;99.90
45319;DHT22;31057;48.498;32.260;2022-12-18T05:38:10;0.60;99.90
45319;DHT22;31057;48.498;32.260;2022-12-18T05:40:12;0.70;99.90
45319;DHT22;31057;48.498;32.260;2022-12-18T05:42:14;0.60;99.90
45319;DHT22;31057;48.498;32.260;2022-12-18T05:44:16;0.60;99.90
45319;DHT22;31057;48.498;32.260;2022-12-18T05:46:18;0.60;99.90
45319;DHT22;31057;48.498;32.260;2022-12-18T05:48:20;0.50;99.90
45319;DHT22;31057;48.498;32.260;2022-12-18T05:50:22;0.60;99.90
45319;DHT22;31057;48.498;32.260;2022-12-18T05:52:24;0.50;99.90
45319;DHT22;31057;48.498;32.260;2022-12-18T05:54:29;0.60;99.90
45319;DHT22;31057;48.498;32.260;2022-12-18T05:56:32;0.50;99.90
45319;DHT22;31057;48.498;32.260;2022-12-18T05:58:34;0.40;99.90
45319;DHT22;31057;48.498;32.260;2022-12-18T06:00:38;0.50;99.90
45319;DHT22;31057;48.498;32.260;2022-12-18T08:14:12;0.60;99.90
45319;DHT22;31057;48.498;32.260;2022-12-18T08:16:13;0.60;99.90
45319;DHT22;31057;48.498;32.260;2022-12-18T08:18:15;0.50;99.90
45319;DHT22;31057;48.498;32.260;2022-12-18T08:20:17;0.60;99.90
45319;DHT22;31057;48.498;32.260;2022-12-18T08:22:20;0.60;99.90
45319;DHT22;31057;48.498;32.260;2022-12-18T08:24:21;0.60;99.90
45319;DHT22;31057;48.498;32.260;2022-12-18T08:26:25;0.70;99.90
45319;DHT22;31057;48.498;32.260;2022-12-18T08:28:27;0.70;99.90
45319;DHT22;31057;48.498;32.260;2022-12-18T08:30:29;0.70;99.90
45319;DHT22;31057;48.498;32.260;2022-12-18T08:32:31;0.80;99.90
45319;DHT22;31057;48.498;32.260;2022-12-18T08:34:34;0.70;99.90
45319;DHT22;31057;48.498;32.260;2022-12-18T08:36:36;0.70;99.90
45319;DHT22;31057;48.498;32.260;2022-12-18T08:38:38;0.80;99.90
45319;DHT22;31057;48.498;32.260;2022-12-18T08:40:40;0.60;99.90
45319;DHT22;31057;48.498;32.260;2022-12-18T08:42:42;0.40;99.90
45319;DHT22;31057;48.498;32.260;2022-12-18T08:45:03;0.30;99.90
45319;DHT22;31057;48.498;32.260;2022-12-18T08:47:06;0.30;99.90
45319;DHT22;31057;48.498;32.260;2022-12-18T08:49:08;0.30;99.90
45319;DHT22;31057;48.498;32.260;2022-12-18T08:51:11;0.20;99.90
45319;DHT22;31057;48.498;32.260;2022-12-18T08:53:13;0.10;99.90
45319;DHT22;31057;48.498;32.260;2022-12-18T08:55:15;0.20;99.90
45319;DHT22;31057;48.498;32.260;2022-12-18T08:57:16;0.10;99.90
45319;DHT22;31057;48.498;32.260;2022-12-18T08:59:19;0.20;99.90
45319;DHT22;31057;48.498;32.260;2022-12-18T09:01:21;0.20;99.90
45319;DHT22;31057;48.498;32.260;2022-12-18T09:03:24;0.10;99.90
45319;DHT22;31057;48.498;32.260;2022-12-18T09:05:25;0.10;99.90
45319;DHT22;31057;48.498;32.260;2022-12-18T09:07:29;0.10;99.90
45319;DHT22;31057;48.498;32.260;2022-12-18T09:09:30;0.10;99.90
45319;DHT22;31057;48.498;32.260;2022-12-18T09:11:33;0.10;99.90
45319;DHT22;31057;48.498;32.260;2022-12-18T09:13:35;0.10;99.90
45319;DHT22;31057;48.498;32.260;2022-12-18T09:15:45;0.00;99.90
45319;DHT22;31057;48.498;32.260;2022-12-18T09:17:48;0.00;99.90
45319;DHT22;31057;48.498;32.260;2022-12-18T09:19:51;0.00;99.90
45319;DHT22;31057;48.498;32.260;2022-12-18T09:21:53;0.00;99.90
45319;DHT22;31057;48.498;32.260;2022-12-18T09:23:55;0.00;99.90
45319;DHT22;31057;48.498;32.260;2022-12-18T09:26:00;-0.10;99.90
45319;DHT22;31057;48.498;32.260;2022-12-18T09:28:06;-0.10;99.90
45319;DHT22;31057;48.498;32.260;2022-12-18T09:30:09;0.00;99.90
45319;DHT22;31057;48.498;32.260;2022-12-18T09:32:11;0.00;99.90
45319;DHT22;31057;48.498;32.260;2022-12-18T09:34:18;-0.10;99.90
45319;DHT22;31057;48.498;32.260;2022-12-18T09:36:23;-0.10;99.90
45319;DHT22;31057;48.498;32.260;2022-12-18T09:38:24;0.00;99.90
45319;DHT22;31057;48.498;32.260;2022-12-18T09:40:30;-0.10;99.90
45319;DHT22;31057;48.498;32.260;2022-12-18T09:42:33;0.00;99.90
45319;DHT22;31057;48.498;32.260;2022-12-18T09:44:39;-0.10;99.90
45319;DHT22;31057;48.498;32.260;2022-12-18T09:46:52;-0.10;99.90
45319;DHT22;31057;48.498;32.260;2022-12-18T09:49:00;0.00;99.90
45319;DHT22;31057;48.498;32.260;2022-12-18T09:51:39;0.00;99.90
45319;DHT22;31057;48.498;32.260;2022-12-18T09:53:51;-0.10;99.90
45319;DHT22;31057;48.498;32.260;2022-12-18T09:55:54;-0.10;99.90
45319;DHT22;31057;48.498;32.260;2022-12-18T09:58:05;0.00;99.90
45319;DHT22;31057;48.498;32.260;2022-12-18T10:00:23;0.00;99.90
45319;DHT22;31057;48.498;32.260;2022-12-18T10:02:26;0.00;99.90
45319;DHT22;31057;48.498;32.260;2022-12-18T10:04:32;-0.10;99.90
45319;DHT22;31057;48.498;32.260;2022-12-18T10:06:46;0.00;99.90
45319;DHT22;31057;48.498;32.260;2022-12-18T10:09:29;0.00;99.90
45319;DHT22;31057;48.498;32.260;2022-12-18T10:13:35;0.00;99.90
45319;DHT22;31057;48.498;32.260;2022-12-18T10:15:51;-0.10;99.90
45319;DHT22;31057;48.498;32.260;2022-12-18T10:18:24;-0.10;99.90
45319;DHT22;31057;48.498;32.260;2022-12-18T10:20:40;-0.20;99.90
45319;DHT22;31057;48.498;32.260;2022-12-18T10:25:12;-0.10;99.90
45319;DHT22;31057;48.498;32.260;2022-12-18T10:27:20;-0.10;99.90
45319;DHT22;31057;48.498;32.260;2022-12-18T10:29:25;-0.10;99.90
45319;DHT22;31057;48.498;32.260;2022-12-18T10:31:27;-0.10;99.90
45319;DHT22;31057;48.498;32.260;2022-12-18T10:33:30;-0.20;99.90
45319;DHT22;31057;48.498;32.260;2022-12-18T10:35:34;-0.10;99.90
45319;DHT22;31057;48.498;32.260;2022-12-18T10:38:01;-0.20;99.90
45319;DHT22;31057;48.498;32.260;2022-12-18T10:40:15;-0.20;99.90
45319;DHT22;31057;48.498;32.260;2022-12-18T10:42:23;-0.30;99.90
45319;DHT22;31057;48.498;32.260;2022-12-18T10:44:25;-0.30;99.90
45319;DHT22;31057;48.498;32.260;2022-12-18T10:46:27;-0.30;99.90
45319;DHT22;31057;48.498;32.260;2022-12-18T10:48:30;-0.40;99.90
45319;DHT22;31057;48.498;32.260;2022-12-18T10:50:35;-0.40;99.90
45319;DHT22;31057;48.498;32.260;2022-12-18T10:53:04;-0.50;99.90
45319;DHT22;31057;48.498;32.260;2022-12-18T10:55:16;-0.50;99.90
45319;DHT22;31057;48.498;32.260;2022-12-18T10:59:52;-0.50;99.90
45319;DHT22;31057;48.498;32.260;2022-12-18T11:01:57;-0.60;99.90
45319;DHT22;31057;48.498;32.260;2022-12-18T11:04:07;-0.90;99.90
45319;DHT22;31057;48.498;32.260;2022-12-18T11:06:15;-0.80;99.90
45319;DHT22;31057;48.498;32.260;2022-12-18T11:08:21;-0.80;99.90
45319;DHT22;31057;48.498;32.260;2022-12-18T11:10:37;-0.90;99.90
45319;DHT22;31057;48.498;32.260;2022-12-18T11:12:40;-1.00;99.90
45319;DHT22;31057;48.498;32.260;2022-12-18T11:14:46;-1.00;99.90
45319;DHT22;31057;48.498;32.260;2022-12-18T11:16:49;-1.10;99.90
45319;DHT22;31057;48.498;32.260;2022-12-18T11:19:36;-1.10;99.90
45319;DHT22;31057;48.498;32.260;2022-12-18T11:21:40;-1.00;99.90
45319;DHT22;31057;48.498;32.260;2022-12-18T11:25:55;-1.00;99.90
45319;DHT22;31057;48.498;32.260;2022-12-18T11:28:04;-1.20;99.90
45319;DHT22;31057;48.498;32.260;2022-12-18T11:34:33;-1.30;99.90
45319;DHT22;31057;48.498;32.260;2022-12-18T11:36:43;-1.30;99.90
45319;DHT22;31057;48.498;32.260;2022-12-18T11:38:46;-1.40;99.90
45319;DHT22;31057;48.498;32.260;2022-12-18T11:45:54;-1.40;99.90
45319;DHT22;31057;48.498;32.260;2022-12-18T11:48:02;-1.30;99.90
45319;DHT22;31057;48.498;32.260;2022-12-18T11:50:20;-1.20;99.90
45319;DHT22;31057;48.498;32.260;2022-12-18T11:52:27;-1.30;99.90
45319;DHT22;31057;48.498;32.260;2022-12-18T11:54:30;-1.30;99.90
45319;DHT22;31057;48.498;32.260;2022-12-18T11:56:35;-1.30;99.90
45319;DHT22;31057;48.498;32.260;2022-12-18T11:58:47;-1.20;99.90
45319;DHT22;31057;48.498;32.260;2022-12-18T14:17:09;-1.90;99.90
45319;DHT22;31057;48.498;32.260;2022-12-18T14:19:16;-2.00;99.90
45319;DHT22;31057;48.498;32.260;2022-12-18T14:21:27;-2.00;99.90
45319;DHT22;31057;48.498;32.260;2022-12-18T14:23:40;-2.00;99.90
45319;DHT22;31057;48.498;32.260;2022-12-18T14:25:46;-2.00;99.90
45319;DHT22;31057;48.498;32.260;2022-12-18T14:28:04;-1.90;99.90
45319;DHT22;31057;48.498;32.260;2022-12-18T14:30:30;-2.00;99.90
45319;DHT22;31057;48.498;32.260;2022-12-18T14:32:33;-1.90;99.90
45319;DHT22;31057;48.498;32.260;2022-12-18T14:34:34;-1.90;99.90
45319;DHT22;31057;48.498;32.260;2022-12-18T14:36:36;-1.90;99.90
45319;DHT22;31057;48.498;32.260;2022-12-18T14:38:41;-1.90;99.90
45319;DHT22;31057;48.498;32.260;2022-12-18T14:40:43;-1.90;99.90
45319;DHT22;31057;48.498;32.260;2022-12-18T14:42:45;-1.90;99.90
45319;DHT22;31057;48.498;32.260;2022-12-18T14:44:47;-1.80;99.90
45319;DHT22;31057;48.498;32.260;2022-12-18T14:47:15;-1.80;99.90
45319;DHT22;31057;48.498;32.260;2022-12-18T14:49:31;-1.70;99.90
45319;DHT22;31057;48.498;32.260;2022-12-18T14:51:34;-1.70;99.90
45319;DHT22;31057;48.498;32.260;2022-12-18T14:53:46;-1.70;99.90
45319;DHT22;31057;48.498;32.260;2022-12-18T14:55:55;-1.70;99.90
45319;DHT22;31057;48.498;32.260;2022-12-18T14:57:57;-1.70;99.90
45319;DHT22;31057;48.498;32.260;2022-12-18T15:00:17;-1.70;99.90
45319;DHT22;31057;48.498;32.260;2022-12-18T15:02:23;-1.70;99.90
45319;DHT22;31057;48.498;32.260;2022-12-18T15:04:37;-1.80;99.90
45319;DHT22;31057;48.498;32.260;2022-12-18T15:06:43;-1.80;99.90
45319;DHT22;31057;48.498;32.260;2022-12-18T15:08:46;-1.80;99.90
45319;DHT22;31057;48.498;32.260;2022-12-18T15:10:48;-1.80;99.90
45319;DHT22;31057;48.498;32.260;2022-12-18T15:14:58;-1.80;99.90
45319;DHT22;31057;48.498;32.260;2022-12-18T15:17:02;-1.80;99.90
45319;DHT22;31057;48.498;32.260;2022-12-18T15:19:07;-1.80;99.90
45319;DHT22;31057;48.498;32.260;2022-12-18T15:21:11;-1.80;99.90
45319;DHT22;31057;48.498;32.260;2022-12-18T15:23:22;-1.80;99.90
45319;DHT22;31057;48.498;32.260;2022-12-18T15:25:44;-1.90;99.90
45319;DHT22;31057;48.498;32.260;2022-12-18T15:27:49;-1.90;99.90
45319;DHT22;31057;48.498;32.260;2022-12-18T15:30:15;-1.80;99.90
45319;DHT22;31057;48.498;32.260;2022-12-18T15:32:19;-1.80;99.90
45319;DHT22;31057;48.498;32.260;2022-12-18T15:34:22;-1.90;99.90
45319;DHT22;31057;48.498;32.260;2022-12-18T15:36:24;-1.90;99.90
45319;DHT22;31057;48.498;32.260;2022-12-18T15:38:27;-1.90;99.90
45319;DHT22;31057;48.498;32.260;2022-12-18T15:40:29;-1.90;99.90
45319;DHT22;31057;48.498;32.260;2022-12-18T15:42:31;-1.90;99.90
45319;DHT22;31057;48.498;32.260;2022-12-18T15:44:51;-1.90;99.90
45319;DHT22;31057;48.498;32.260;2022-12-18T15:46:57;-1.80;99.90
45319;DHT22;31057;48.498;32.260;2022-12-18T15:48:59;-1.90;99.90
45319;DHT22;31057;48.498;32.260;2022-12-18T15:51:05;-1.90;99.90
45319;DHT22;31057;48.498;32.260;2022-12-18T15:53:10;-1.90;99.90
45319;DHT22;31057;48.498;32.260;2022-12-18T15:55:13;-1.90;99.90
45319;DHT22;31057;48.498;32.260;2022-12-18T15:57:33;-1.90;99.90
45319;DHT22;31057;48.498;32.260;2022-12-18T15:59:35;-1.90;99.90
45319;DHT22;31057;48.498;32.260;2022-12-18T16:01:37;-1.90;99.90
45319;DHT22;31057;48.498;32.260;2022-12-18T16:03:43;-1.90;99.90
45319;DHT22;31057;48.498;32.260;2022-12-18T16:05:46;-1.90;99.90
45319;DHT22;31057;48.498;32.260;2022-12-18T16:07:48;-1.90;99.90
45319;DHT22;31057;48.498;32.260;2022-12-18T16:09:49;-1.90;99.90
45319;DHT22;31057;48.498;32.260;2022-12-18T16:11:51;-1.90;99.90
45319;DHT22;31057;48.498;32.260;2022-12-18T16:13:53;-1.90;99.90
45319;DHT22;31057;48.498;32.260;2022-12-18T16:15:55;-1.90;99.90
45319;DHT22;31057;48.498;32.260;2022-12-18T16:17:57;-1.90;99.90
45319;DHT22;31057;48.498;32.260;2022-12-18T16:19:59;-1.80;99.90
45319;DHT22;31057;48.498;32.260;2022-12-18T16:22:01;-1.90;99.90
45319;DHT22;31057;48.498;32.260;2022-12-18T16:24:03;-1.80;99.90
45319;DHT22;31057;48.498;32.260;2022-12-18T16:26:05;-1.90;99.90
45319;DHT22;31057;48.498;32.260;2022-12-18T16:28:07;-1.90;99.90
45319;DHT22;31057;48.498;32.260;2022-12-18T16:30:12;-1.90;99.90
45319;DHT22;31057;48.498;32.260;2022-12-18T16:32:19;-1.90;99.90
45319;DHT22;31057;48.498;32.260;2022-12-18T16:34:26;-1.90;99.90
45319;DHT22;31057;48.498;32.260;2022-12-18T16:36:30;-1.90;99.90
45319;DHT22;31057;48.498;32.260;2022-12-18T16:38:32;-2.00;99.90
45319;DHT22;31057;48.498;32.260;2022-12-18T16:40:33;-2.00;99.90
45319;DHT22;31057;48.498;32.260;2022-12-18T16:42:55;-2.00;99.90
45319;DHT22;31057;48.498;32.260;2022-12-18T16:44:57;-2.00;99.90
45319;DHT22;31057;48.498;32.260;2022-12-18T16:46:59;-2.00;99.90
45319;DHT22;31057;48.498;32.260;2022-12-18T16:49:04;-1.90;99.90
45319;DHT22;31057;48.498;32.260;2022-12-18T16:51:06;-2.00;99.90
45319;DHT22;31057;48.498;32.260;2022-12-18T16:53:08;-2.00;99.90
45319;DHT22;31057;48.498;32.260;2022-12-18T16:55:10;-2.00;99.90
45319;DHT22;31057;48.498;32.260;2022-12-18T16:57:13;-2.00;99.90
45319;DHT22;31057;48.498;32.260;2022-12-18T16:59:15;-2.10;99.90
45319;DHT22;31057;48.498;32.260;2022-12-18T17:01:22;-2.00;99.90
45319;DHT22;31057;48.498;32.260;2022-12-18T17:03:24;-2.00;99.90
45319;DHT22;31057;48.498;32.260;2022-12-18T17:05:26;-2.00;99.90
45319;DHT22;31057;48.498;32.260;2022-12-18T17:07:28;-2.00;99.90
45319;DHT22;31057;48.498;32.260;2022-12-18T17:09:35;-2.00;99.90
45319;DHT22;31057;48.498;32.260;2022-12-18T17:11:41;-1.90;99.90
45319;DHT22;31057;48.498;32.260;2022-12-18T17:13:43;-2.00;99.90
45319;DHT22;31057;48.498;32.260;2022-12-18T17:15:44;-2.00;99.90
45319;DHT22;31057;48.498;32.260;2022-12-18T17:17:47;-1.90;99.90
45319;DHT22;31057;48.498;32.260;2022-12-18T17:19:49;-2.00;99.90
45319;DHT22;31057;48.498;32.260;2022-12-18T17:21:52;-2.00;99.90
45319;DHT22;31057;48.498;32.260;2022-12-18T17:23:54;-2.00;99.90
45319;DHT22;31057;48.498;32.260;2022-12-18T17:25:59;-2.10;99.90
45319;DHT22;31057;48.498;32.260;2022-12-18T17:28:02;-2.00;99.90
45319;DHT22;31057;48.498;32.260;2022-12-18T17:30:05;-2.00;99.90
45319;DHT22;31057;48.498;32.260;2022-12-18T17:32:07;-2.00;99.90
45319;DHT22;31057;48.498;32.260;2022-12-18T17:34:09;-2.00;99.90
45319;DHT22;31057;48.498;32.260;2022-12-18T17:36:11;-2.00;99.90
45319;DHT22;31057;48.498;32.260;2022-12-18T17:38:13;-2.10;99.90
45319;DHT22;31057;48.498;32.260;2022-12-18T17:40:17;-2.10;99.90
45319;DHT22;31057;48.498;32.260;2022-12-18T17:42:20;-2.00;99.90
45319;DHT22;31057;48.498;32.260;2022-12-18T17:44:25;-2.00;99.90
45319;DHT22;31057;48.498;32.260;2022-12-18T17:46:30;-2.00;99.90
45319;DHT22;31057;48.498;32.260;2022-12-18T17:48:32;-2.00;99.90
45319;DHT22;31057;48.498;32.260;2022-12-18T17:50:35;-2.10;99.90
45319;DHT22;31057;48.498;32.260;2022-12-18T17:52:37;-2.00;99.90
45319;DHT22;31057;48.498;32.260;2022-12-18T17:54:38;-2.00;99.90
45319;DHT22;31057;48.498;32.260;2022-12-18T17:56:42;-2.00;99.90
45319;DHT22;31057;48.498;32.260;2022-12-18T17:58:50;-2.00;99.90
45319;DHT22;31057;48.498;32.260;2022-12-18T18:00:52;-2.00;99.90
45319;DHT22;31057;48.498;32.260;2022-12-18T20:14:35;-2.20;99.90
45319;DHT22;31057;48.498;32.260;2022-12-18T20:16:37;-2.40;99.90
45319;DHT22;31057;48.498;32.260;2022-12-18T20:18:39;-2.30;99.90
45319;DHT22;31057;48.498;32.260;2022-12-18T20:20:41;-2.30;99.90
45319;DHT22;31057;48.498;32.260;2022-12-18T20:22:43;-2.40;99.90
45319;DHT22;31057;48.498;32.260;2022-12-18T20:24:45;-2.40;99.90
45319;DHT22;31057;48.498;32.260;2022-12-18T20:26:50;-2.40;99.90
45319;DHT22;31057;48.498;32.260;2022-12-18T20:28:52;-2.40;99.90
45319;DHT22;31057;48.498;32.260;2022-12-18T20:30:59;-2.40;99.90
45319;DHT22;31057;48.498;32.260;2022-12-18T20:33:01;-2.40;99.90